Redwood Falls Municipal Airport
KRWF : now visible

Airfield :











YOU CAN JOIN US ON...

 
LOGIN :

Register | Disclaimer

   EN    FR    IT 

 









Legend :    VFR   Marginal VFR   IFR   Intensive IFR   Very Intensive IFR
Visi :
Ceiling :
>= 8 km
>= 3000ft
5 to 8 km
1000 to 3000 ft
1500m to 5 km
500 to 1000 ft
800 to 1500m
200 to 500 ft
< 800m
< 200 ft
Symbols :   Thunderstorms  Fog  Heavy snow  Heavy precipitations  Wind > 20 kt







- Airport Elevation : 1024 ft


KRWF - Redwood Falls Municipal

CURRENT METAR :
  • 192153Z AUTO 03014G22KT 10SM OVC018 06/02 A2991 RMK AO2 PK WND 04026/2120 SLP134 T00560022

EXPIRED METARs :
  • 192136Z AUTO 01012G20KT 240V040 9SM BKN014 OVC021 06/03 A2989 RMK AO2 PK WND 04026/2120 T00560028
  • 192053Z AUTO 02013G23KT 10SM OVC016 06/03 A2988 RMK AO2 PK WND 03026/2025 SLP123 T00560028 51035
  • 191953Z AUTO VRB06G22KT 10SM OVC016 06/03 A2985 RMK AO2 PK WND 02028/1912 SLP115 T00610028

TAF KRWF
Valid from the 19 at 18:00 until the 20 at 18:00 UTC


191721Z 1918/2018 02014G26KT P6SM VCSH BKN015 OVC025
FM200000 36010G18KT P6SM VCSH OVC020
FM200200 35008KT P6SM BKN025
FM200300 34007KT P6SM BKN070
FM200500 31006KT P6SM SCT070
KZMP FIR / North America



MET'MAP, your aeronautical weather chart ! - Copyright ORBIFLY December 2007 - Disclaimer

ORBIFLY MET'MAP TEAM :

Programming & Development : Alexandra Zaïnal
Concept & Development : Baudouin d'Aumeries
Co-Development & Prog : Marc-Olivier Méhu
Technical & hardware support : Manuel Goepfert

Contact : metmap@orbifly.com




SOURCES & CREDITS :

   NOAA       Earth
Advisory